sensor_id;sensor_type;location;lat;lon;timestamp;temperature;humidity
55135;DHT22;41031;44.750;11.308;2023-07-29T00:01:37;24.10;81.50
55135;DHT22;41031;44.750;11.308;2023-07-29T00:04:08;24.10;82.30
55135;DHT22;41031;44.750;11.308;2023-07-29T00:06:36;24.10;81.60
55135;DHT22;41031;44.750;11.308;2023-07-29T00:09:04;24.00;81.50
55135;DHT22;41031;44.750;11.308;2023-07-29T00:11:31;23.90;81.50
55135;DHT22;41031;44.750;11.308;2023-07-29T00:14:03;23.90;81.90
55135;DHT22;41031;44.750;11.308;2023-07-29T00:16:30;23.80;82.90
55135;DHT22;41031;44.750;11.308;2023-07-29T00:18:58;23.80;82.40
55135;DHT22;41031;44.750;11.308;2023-07-29T00:21:25;23.80;82.60
55135;DHT22;41031;44.750;11.308;2023-07-29T00:23:52;23.80;82.80
55135;DHT22;41031;44.750;11.308;2023-07-29T00:26:19;23.80;83.00
55135;DHT22;41031;44.750;11.308;2023-07-29T00:28:47;23.80;83.10
55135;DHT22;41031;44.750;11.308;2023-07-29T00:31:14;23.80;83.00
55135;DHT22;41031;44.750;11.308;2023-07-29T00:33:41;23.70;83.00
55135;DHT22;41031;44.750;11.308;2023-07-29T00:36:08;23.70;83.20
55135;DHT22;41031;44.750;11.308;2023-07-29T00:38:35;23.70;83.40
55135;DHT22;41031;44.750;11.308;2023-07-29T00:41:02;23.70;83.50
55135;DHT22;41031;44.750;11.308;2023-07-29T00:43:30;23.70;83.50
55135;DHT22;41031;44.750;11.308;2023-07-29T00:45:57;23.70;83.50
55135;DHT22;41031;44.750;11.308;2023-07-29T00:48:25;23.70;83.50
55135;DHT22;41031;44.750;11.308;2023-07-29T00:50:53;23.70;83.40
55135;DHT22;41031;44.750;11.308;2023-07-29T00:53:21;23.70;83.40
55135;DHT22;41031;44.750;11.308;2023-07-29T00:55:49;23.70;83.40
55135;DHT22;41031;44.750;11.308;2023-07-29T00:58:16;23.80;83.40
55135;DHT22;41031;44.750;11.308;2023-07-29T01:00:43;23.80;83.40
55135;DHT22;41031;44.750;11.308;2023-07-29T01:03:10;23.70;83.50
55135;DHT22;41031;44.750;11.308;2023-07-29T01:08:33;23.80;83.90
55135;DHT22;41031;44.750;11.308;2023-07-29T01:16:48;23.80;83.20
55135;DHT22;41031;44.750;11.308;2023-07-29T01:22:07;23.80;82.90
55135;DHT22;41031;44.750;11.308;2023-07-29T01:24:34;23.70;82.80
55135;DHT22;41031;44.750;11.308;2023-07-29T01:27:01;23.70;82.90
55135;DHT22;41031;44.750;11.308;2023-07-29T01:29:30;23.80;83.10
55135;DHT22;41031;44.750;11.308;2023-07-29T01:32:04;23.70;83.10
55135;DHT22;41031;44.750;11.308;2023-07-29T01:34:40;23.80;83.30
55135;DHT22;41031;44.750;11.308;2023-07-29T01:37:09;23.80;83.40
55135;DHT22;41031;44.750;11.308;2023-07-29T01:39:40;23.80;83.30
55135;DHT22;41031;44.750;11.308;2023-07-29T01:42:07;23.80;83.30
55135;DHT22;41031;44.750;11.308;2023-07-29T01:44:35;23.80;83.40
55135;DHT22;41031;44.750;11.308;2023-07-29T01:47:02;23.80;83.60
55135;DHT22;41031;44.750;11.308;2023-07-29T01:49:29;23.80;83.70
55135;DHT22;41031;44.750;11.308;2023-07-29T01:51:59;23.80;83.80
55135;DHT22;41031;44.750;11.308;2023-07-29T01:54:26;23.80;83.80
55135;DHT22;41031;44.750;11.308;2023-07-29T01:56:53;23.70;83.80
55135;DHT22;41031;44.750;11.308;2023-07-29T01:59:20;23.70;83.90
55135;DHT22;41031;44.750;11.308;2023-07-29T02:01:47;23.70;84.00
55135;DHT22;41031;44.750;11.308;2023-07-29T02:04:15;23.70;84.10
55135;DHT22;41031;44.750;11.308;2023-07-29T02:06:42;23.70;84.60
55135;DHT22;41031;44.750;11.308;2023-07-29T02:09:09;23.60;84.00
55135;DHT22;41031;44.750;11.308;2023-07-29T02:11:36;23.60;84.10
55135;DHT22;41031;44.750;11.308;2023-07-29T02:14:03;23.60;84.30
55135;DHT22;41031;44.750;11.308;2023-07-29T02:16:31;23.60;84.50
55135;DHT22;41031;44.750;11.308;2023-07-29T02:18:59;23.60;84.70
55135;DHT22;41031;44.750;11.308;2023-07-29T02:21:26;23.60;84.90
55135;DHT22;41031;44.750;11.308;2023-07-29T02:23:53;23.60;85.00
55135;DHT22;41031;44.750;11.308;2023-07-29T02:26:22;23.60;85.10
55135;DHT22;41031;44.750;11.308;2023-07-29T02:28:49;23.50;85.10
55135;DHT22;41031;44.750;11.308;2023-07-29T02:31:20;23.50;85.20
55135;DHT22;41031;44.750;11.308;2023-07-29T02:33:47;23.50;85.50
55135;DHT22;41031;44.750;11.308;2023-07-29T02:36:17;23.40;85.50
55135;DHT22;41031;44.750;11.308;2023-07-29T02:38:45;23.40;85.70
55135;DHT22;41031;44.750;11.308;2023-07-29T02:41:13;23.40;85.80
55135;DHT22;41031;44.750;11.308;2023-07-29T02:43:49;23.30;85.80
55135;DHT22;41031;44.750;11.308;2023-07-29T02:46:16;23.30;85.90
55135;DHT22;41031;44.750;11.308;2023-07-29T02:48:44;23.30;86.00
55135;DHT22;41031;44.750;11.308;2023-07-29T02:51:11;23.30;86.10
55135;DHT22;41031;44.750;11.308;2023-07-29T02:53:38;23.20;86.20
55135;DHT22;41031;44.750;11.308;2023-07-29T02:56:05;23.20;86.40
55135;DHT22;41031;44.750;11.308;2023-07-29T02:58:37;23.20;86.60
55135;DHT22;41031;44.750;11.308;2023-07-29T03:01:05;23.10;86.70
55135;DHT22;41031;44.750;11.308;2023-07-29T03:03:33;23.10;86.80
55135;DHT22;41031;44.750;11.308;2023-07-29T03:06:05;23.10;86.90
55135;DHT22;41031;44.750;11.308;2023-07-29T03:08:32;23.00;87.10
55135;DHT22;41031;44.750;11.308;2023-07-29T03:11:08;22.90;87.10
55135;DHT22;41031;44.750;11.308;2023-07-29T03:13:36;22.90;87.30
55135;DHT22;41031;44.750;11.308;2023-07-29T03:16:14;23.00;87.40
55135;DHT22;41031;44.750;11.308;2023-07-29T03:18:48;22.90;87.40
55135;DHT22;41031;44.750;11.308;2023-07-29T03:21:15;22.90;87.40
55135;DHT22;41031;44.750;11.308;2023-07-29T03:23:42;22.90;87.20
55135;DHT22;41031;44.750;11.308;2023-07-29T03:26:09;22.90;87.20
55135;DHT22;41031;44.750;11.308;2023-07-29T03:28:42;22.90;87.20
55135;DHT22;41031;44.750;11.308;2023-07-29T03:31:10;22.90;87.10
55135;DHT22;41031;44.750;11.308;2023-07-29T03:33:38;22.90;87.10
55135;DHT22;41031;44.750;11.308;2023-07-29T03:36:05;22.90;87.00
55135;DHT22;41031;44.750;11.308;2023-07-29T03:38:32;22.90;86.80
55135;DHT22;41031;44.750;11.308;2023-07-29T03:41:08;22.90;86.70
55135;DHT22;41031;44.750;11.308;2023-07-29T03:43:35;22.90;86.60
55135;DHT22;41031;44.750;11.308;2023-07-29T03:46:02;22.90;86.80
55135;DHT22;41031;44.750;11.308;2023-07-29T03:48:30;22.80;86.90
55135;DHT22;41031;44.750;11.308;2023-07-29T03:50:58;22.80;87.20
55135;DHT22;41031;44.750;11.308;2023-07-29T03:53:25;22.80;87.40
55135;DHT22;41031;44.750;11.308;2023-07-29T03:55:52;22.70;87.50
55135;DHT22;41031;44.750;11.308;2023-07-29T03:58:19;22.70;87.70
55135;DHT22;41031;44.750;11.308;2023-07-29T04:00:46;22.70;87.90
55135;DHT22;41031;44.750;11.308;2023-07-29T04:03:14;22.70;88.00
55135;DHT22;41031;44.750;11.308;2023-07-29T04:05:41;22.70;88.20
55135;DHT22;41031;44.750;11.308;2023-07-29T04:08:08;22.70;88.10
55135;DHT22;41031;44.750;11.308;2023-07-29T04:10:36;22.60;88.20
55135;DHT22;41031;44.750;11.308;2023-07-29T04:13:04;22.60;88.40
55135;DHT22;41031;44.750;11.308;2023-07-29T04:15:32;22.60;88.70
55135;DHT22;41031;44.750;11.308;2023-07-29T04:17:59;22.60;88.90
55135;DHT22;41031;44.750;11.308;2023-07-29T04:20:26;22.60;89.10
55135;DHT22;41031;44.750;11.308;2023-07-29T04:22:53;22.60;89.20
55135;DHT22;41031;44.750;11.308;2023-07-29T04:25:20;22.60;89.20
55135;DHT22;41031;44.750;11.308;2023-07-29T04:27:47;22.60;89.20
55135;DHT22;41031;44.750;11.308;2023-07-29T04:30:14;22.60;89.00
55135;DHT22;41031;44.750;11.308;2023-07-29T04:32:41;22.70;88.90
55135;DHT22;41031;44.750;11.308;2023-07-29T04:35:09;22.70;88.80
55135;DHT22;41031;44.750;11.308;2023-07-29T04:37:36;22.70;88.80
55135;DHT22;41031;44.750;11.308;2023-07-29T04:40:03;22.80;89.70
55135;DHT22;41031;44.750;11.308;2023-07-29T04:42:30;22.80;89.20
55135;DHT22;41031;44.750;11.308;2023-07-29T04:44:57;22.80;89.30
55135;DHT22;41031;44.750;11.308;2023-07-29T04:47:24;22.90;89.50
55135;DHT22;41031;44.750;11.308;2023-07-29T04:49:53;22.90;89.70
55135;DHT22;41031;44.750;11.308;2023-07-29T04:52:20;23.00;89.70
55135;DHT22;41031;44.750;11.308;2023-07-29T04:54:48;23.10;89.60
55135;DHT22;41031;44.750;11.308;2023-07-29T04:57:15;23.20;89.50
55135;DHT22;41031;44.750;11.308;2023-07-29T04:59:42;23.20;89.50
55135;DHT22;41031;44.750;11.308;2023-07-29T05:02:09;23.30;89.50
55135;DHT22;41031;44.750;11.308;2023-07-29T05:04:37;23.30;89.40
55135;DHT22;41031;44.750;11.308;2023-07-29T05:07:04;23.40;89.30
55135;DHT22;41031;44.750;11.308;2023-07-29T05:09:31;23.50;89.20
55135;DHT22;41031;44.750;11.308;2023-07-29T05:11:59;23.60;89.00
55135;DHT22;41031;44.750;11.308;2023-07-29T05:14:26;23.60;88.70
55135;DHT22;41031;44.750;11.308;2023-07-29T05:16:54;23.70;88.50
55135;DHT22;41031;44.750;11.308;2023-07-29T05:19:21;23.80;88.40
55135;DHT22;41031;44.750;11.308;2023-07-29T05:21:48;23.80;89.00
55135;DHT22;41031;44.750;11.308;2023-07-29T05:24:15;23.90;88.30
55135;DHT22;41031;44.750;11.308;2023-07-29T05:26:42;24.00;88.20
55135;DHT22;41031;44.750;11.308;2023-07-29T05:29:09;24.10;88.00
55135;DHT22;41031;44.750;11.308;2023-07-29T05:31:36;24.20;87.80
55135;DHT22;41031;44.750;11.308;2023-07-29T05:34:03;24.30;87.70
55135;DHT22;41031;44.750;11.308;2023-07-29T05:36:31;24.40;87.50
55135;DHT22;41031;44.750;11.308;2023-07-29T05:38:58;24.40;88.00
55135;DHT22;41031;44.750;11.308;2023-07-29T05:41:25;24.50;87.10
55135;DHT22;41031;44.750;11.308;2023-07-29T05:43:55;24.70;86.70
55135;DHT22;41031;44.750;11.308;2023-07-29T05:46:22;24.80;86.00
55135;DHT22;41031;44.750;11.308;2023-07-29T05:48:49;24.90;85.20
55135;DHT22;41031;44.750;11.308;2023-07-29T05:51:17;25.10;84.50
55135;DHT22;41031;44.750;11.308;2023-07-29T05:53:44;25.20;84.10
55135;DHT22;41031;44.750;11.308;2023-07-29T05:56:11;25.40;83.80
55135;DHT22;41031;44.750;11.308;2023-07-29T05:58:38;25.50;83.40
55135;DHT22;41031;44.750;11.308;2023-07-29T06:01:06;25.70;83.00
55135;DHT22;41031;44.750;11.308;2023-07-29T06:03:33;25.90;82.60
55135;DHT22;41031;44.750;11.308;2023-07-29T06:06:01;26.00;81.90
55135;DHT22;41031;44.750;11.308;2023-07-29T06:08:28;26.10;81.10
55135;DHT22;41031;44.750;11.308;2023-07-29T06:10:56;26.30;80.70
55135;DHT22;41031;44.750;11.308;2023-07-29T06:13:23;26.40;80.50
55135;DHT22;41031;44.750;11.308;2023-07-29T06:15:50;26.50;80.30
55135;DHT22;41031;44.750;11.308;2023-07-29T06:18:17;26.60;79.90
55135;DHT22;41031;44.750;11.308;2023-07-29T06:20:44;26.80;79.60
55135;DHT22;41031;44.750;11.308;2023-07-29T06:23:11;26.90;79.30
55135;DHT22;41031;44.750;11.308;2023-07-29T06:25:38;27.00;79.10
55135;DHT22;41031;44.750;11.308;2023-07-29T06:28:05;27.10;78.60
55135;DHT22;41031;44.750;11.308;2023-07-29T06:30:32;27.30;78.20
55135;DHT22;41031;44.750;11.308;2023-07-29T06:32:59;27.40;77.70
55135;DHT22;41031;44.750;11.308;2023-07-29T06:35:26;27.50;77.50
55135;DHT22;41031;44.750;11.308;2023-07-29T06:37:53;27.60;77.30
55135;DHT22;41031;44.750;11.308;2023-07-29T06:40:20;27.70;76.80
55135;DHT22;41031;44.750;11.308;2023-07-29T06:42:47;27.80;76.50
55135;DHT22;41031;44.750;11.308;2023-07-29T06:45:14;27.90;76.10
55135;DHT22;41031;44.750;11.308;2023-07-29T06:47:42;28.00;75.80
55135;DHT22;41031;44.750;11.308;2023-07-29T06:50:09;28.10;75.60
55135;DHT22;41031;44.750;11.308;2023-07-29T06:52:36;28.30;75.20
55135;DHT22;41031;44.750;11.308;2023-07-29T06:55:05;28.40;75.70
55135;DHT22;41031;44.750;11.308;2023-07-29T06:57:32;28.50;74.60
55135;DHT22;41031;44.750;11.308;2023-07-29T09:55:26;31.40;63.40
55135;DHT22;41031;44.750;11.308;2023-07-29T09:57:57;31.50;64.20
55135;DHT22;41031;44.750;11.308;2023-07-29T10:00:32;31.60;64.00
55135;DHT22;41031;44.750;11.308;2023-07-29T10:02:59;31.70;64.30
55135;DHT22;41031;44.750;11.308;2023-07-29T10:05:41;32.00;64.10
55135;DHT22;41031;44.750;11.308;2023-07-29T10:08:09;32.20;62.70
55135;DHT22;41031;44.750;11.308;2023-07-29T10:10:37;32.10;62.20
55135;DHT22;41031;44.750;11.308;2023-07-29T10:13:05;32.00;61.40
55135;DHT22;41031;44.750;11.308;2023-07-29T10:15:32;31.80;62.30
55135;DHT22;41031;44.750;11.308;2023-07-29T10:18:01;31.70;63.40
55135;DHT22;41031;44.750;11.308;2023-07-29T10:20:30;31.80;63.00
55135;DHT22;41031;44.750;11.308;2023-07-29T10:23:00;32.00;62.40
55135;DHT22;41031;44.750;11.308;2023-07-29T10:25:38;32.20;61.50
55135;DHT22;41031;44.750;11.308;2023-07-29T10:28:07;32.40;62.10
55135;DHT22;41031;44.750;11.308;2023-07-29T10:30:34;32.70;61.30
55135;DHT22;41031;44.750;11.308;2023-07-29T10:33:03;33.10;60.40
55135;DHT22;41031;44.750;11.308;2023-07-29T10:35:35;33.50;59.20
55135;DHT22;41031;44.750;11.308;2023-07-29T10:38:03;33.90;58.10
55135;DHT22;41031;44.750;11.308;2023-07-29T10:43:12;34.30;56.20
55135;DHT22;41031;44.750;11.308;2023-07-29T10:45:46;34.50;56.20
55135;DHT22;41031;44.750;11.308;2023-07-29T10:53:52;34.30;54.70
55135;DHT22;41031;44.750;11.308;2023-07-29T10:56:34;34.10;55.60
55135;DHT22;41031;44.750;11.308;2023-07-29T10:59:31;33.90;56.20
55135;DHT22;41031;44.750;11.308;2023-07-29T11:02:01;33.80;56.40
55135;DHT22;41031;44.750;11.308;2023-07-29T11:04:30;33.90;56.50
55135;DHT22;41031;44.750;11.308;2023-07-29T11:07:25;34.10;56.30
55135;DHT22;41031;44.750;11.308;2023-07-29T11:10:03;34.30;55.20
55135;DHT22;41031;44.750;11.308;2023-07-29T11:12:56;34.20;55.00
55135;DHT22;41031;44.750;11.308;2023-07-29T11:15:27;34.00;55.30
55135;DHT22;41031;44.750;11.308;2023-07-29T11:18:01;33.70;55.90
55135;DHT22;41031;44.750;11.308;2023-07-29T11:20:35;33.50;56.50
55135;DHT22;41031;44.750;11.308;2023-07-29T11:23:03;33.30;56.60
55135;DHT22;41031;44.750;11.308;2023-07-29T11:25:32;33.40;56.90
55135;DHT22;41031;44.750;11.308;2023-07-29T11:28:00;33.60;56.60
55135;DHT22;41031;44.750;11.308;2023-07-29T11:30:32;33.80;56.20
55135;DHT22;41031;44.750;11.308;2023-07-29T11:33:01;34.10;55.90
55135;DHT22;41031;44.750;11.308;2023-07-29T11:35:28;34.40;55.10
55135;DHT22;41031;44.750;11.308;2023-07-29T11:37:56;34.60;54.60
55135;DHT22;41031;44.750;11.308;2023-07-29T11:40:25;34.80;54.10
55135;DHT22;41031;44.750;11.308;2023-07-29T11:42:53;34.90;53.80
55135;DHT22;41031;44.750;11.308;2023-07-29T11:45:22;35.00;53.50
55135;DHT22;41031;44.750;11.308;2023-07-29T11:48:16;35.10;53.20
55135;DHT22;41031;44.750;11.308;2023-07-29T11:50:45;35.20;52.80
55135;DHT22;41031;44.750;11.308;2023-07-29T11:53:13;35.20;52.30
55135;DHT22;41031;44.750;11.308;2023-07-29T11:55:43;35.30;52.20
55135;DHT22;41031;44.750;11.308;2023-07-29T11:58:10;35.20;51.60
55135;DHT22;41031;44.750;11.308;2023-07-29T12:00:41;35.20;52.00
55135;DHT22;41031;44.750;11.308;2023-07-29T12:03:08;35.20;52.50
55135;DHT22;41031;44.750;11.308;2023-07-29T12:05:39;35.20;52.00
55135;DHT22;41031;44.750;11.308;2023-07-29T12:08:09;35.10;52.10
55135;DHT22;41031;44.750;11.308;2023-07-29T12:10:37;35.00;51.70
55135;DHT22;41031;44.750;11.308;2023-07-29T12:13:08;35.00;51.90
55135;DHT22;41031;44.750;11.308;2023-07-29T12:15:39;35.00;51.70
55135;DHT22;41031;44.750;11.308;2023-07-29T12:18:07;35.10;51.90
55135;DHT22;41031;44.750;11.308;2023-07-29T12:20:36;35.20;52.00
55135;DHT22;41031;44.750;11.308;2023-07-29T12:23:03;35.40;51.60
55135;DHT22;41031;44.750;11.308;2023-07-29T12:25:33;35.50;51.40
55135;DHT22;41031;44.750;11.308;2023-07-29T12:28:06;35.70;51.00
55135;DHT22;41031;44.750;11.308;2023-07-29T12:30:40;35.70;49.40
55135;DHT22;41031;44.750;11.308;2023-07-29T12:33:07;35.70;49.60
55135;DHT22;41031;44.750;11.308;2023-07-29T12:35:36;35.80;49.40
55135;DHT22;41031;44.750;11.308;2023-07-29T12:38:07;35.70;49.20
55135;DHT22;41031;44.750;11.308;2023-07-29T12:40:38;35.60;48.70
55135;DHT22;41031;44.750;11.308;2023-07-29T12:43:07;35.50;48.70
55135;DHT22;41031;44.750;11.308;2023-07-29T12:45:38;35.20;49.20
55135;DHT22;41031;44.750;11.308;2023-07-29T12:48:09;35.00;50.00
55135;DHT22;41031;44.750;11.308;2023-07-29T12:50:37;34.70;50.00
55135;DHT22;41031;44.750;11.308;2023-07-29T12:53:10;34.50;51.10
55135;DHT22;41031;44.750;11.308;2023-07-29T12:55:38;34.30;50.80
55135;DHT22;41031;44.750;11.308;2023-07-29T12:58:05;34.30;50.90
55135;DHT22;41031;44.750;11.308;2023-07-29T13:00:33;34.30;51.00
55135;DHT22;41031;44.750;11.308;2023-07-29T13:03:03;34.30;51.30
55135;DHT22;41031;44.750;11.308;2023-07-29T13:05:33;34.50;51.60
55135;DHT22;41031;44.750;11.308;2023-07-29T13:08:03;34.70;51.80
55135;DHT22;41031;44.750;11.308;2023-07-29T13:10:31;34.90;51.60
55135;DHT22;41031;44.750;11.308;2023-07-29T13:13:01;35.10;51.30
55135;DHT22;41031;44.750;11.308;2023-07-29T13:15:28;35.20;50.30
55135;DHT22;41031;44.750;11.308;2023-07-29T13:17:55;35.30;51.10
55135;DHT22;41031;44.750;11.308;2023-07-29T13:20:22;35.30;51.40
55135;DHT22;41031;44.750;11.308;2023-07-29T13:22:51;35.30;51.40
55135;DHT22;41031;44.750;11.308;2023-07-29T13:25:19;35.30;51.60
55135;DHT22;41031;44.750;11.308;2023-07-29T13:27:46;35.40;50.10
55135;DHT22;41031;44.750;11.308;2023-07-29T13:30:13;35.40;50.30
55135;DHT22;41031;44.750;11.308;2023-07-29T13:32:43;35.40;50.60
55135;DHT22;41031;44.750;11.308;2023-07-29T13:35:10;35.40;50.20
55135;DHT22;41031;44.750;11.308;2023-07-29T13:37:38;35.40;51.00
55135;DHT22;41031;44.750;11.308;2023-07-29T13:40:08;35.40;50.30
55135;DHT22;41031;44.750;11.308;2023-07-29T13:42:35;35.30;50.40
55135;DHT22;41031;44.750;11.308;2023-07-29T13:45:03;35.20;50.60
55135;DHT22;41031;44.750;11.308;2023-07-29T13:47:32;35.30;51.00
55135;DHT22;41031;44.750;11.308;2023-07-29T13:50:00;35.30;50.30
55135;DHT22;41031;44.750;11.308;2023-07-29T13:52:30;35.20;50.10
55135;DHT22;41031;44.750;11.308;2023-07-29T13:54:57;35.20;49.70
55135;DHT22;41031;44.750;11.308;2023-07-29T13:57:27;35.10;50.30
55135;DHT22;41031;44.750;11.308;2023-07-29T13:59:55;35.10;50.70
55135;DHT22;41031;44.750;11.308;2023-07-29T14:02:22;35.10;50.40
55135;DHT22;41031;44.750;11.308;2023-07-29T14:04:50;35.20;50.90
55135;DHT22;41031;44.750;11.308;2023-07-29T14:07:17;35.30;50.80
55135;DHT22;41031;44.750;11.308;2023-07-29T14:09:48;35.30;50.50
55135;DHT22;41031;44.750;11.308;2023-07-29T14:12:15;35.40;50.10
55135;DHT22;41031;44.750;11.308;2023-07-29T14:14:42;35.40;50.40
55135;DHT22;41031;44.750;11.308;2023-07-29T14:17:23;35.30;49.80
55135;DHT22;41031;44.750;11.308;2023-07-29T14:20:03;35.20;50.00
55135;DHT22;41031;44.750;11.308;2023-07-29T14:22:33;35.10;50.60
55135;DHT22;41031;44.750;11.308;2023-07-29T14:25:00;35.10;50.80
55135;DHT22;41031;44.750;11.308;2023-07-29T14:27:30;35.00;49.10
55135;DHT22;41031;44.750;11.308;2023-07-29T14:29:58;34.80;49.30
55135;DHT22;41031;44.750;11.308;2023-07-29T14:32:25;34.60;50.10
55135;DHT22;41031;44.750;11.308;2023-07-29T14:34:53;34.50;50.80
55135;DHT22;41031;44.750;11.308;2023-07-29T14:37:20;34.50;50.20
55135;DHT22;41031;44.750;11.308;2023-07-29T14:39:48;34.50;51.00
55135;DHT22;41031;44.750;11.308;2023-07-29T14:42:15;34.50;51.50
55135;DHT22;41031;44.750;11.308;2023-07-29T14:44:45;34.50;51.30
55135;DHT22;41031;44.750;11.308;2023-07-29T14:47:12;34.50;51.20
55135;DHT22;41031;44.750;11.308;2023-07-29T14:49:40;34.40;51.90
55135;DHT22;41031;44.750;11.308;2023-07-29T14:52:07;34.40;52.20
55135;DHT22;41031;44.750;11.308;2023-07-29T14:54:35;34.40;51.60
55135;DHT22;41031;44.750;11.308;2023-07-29T14:57:05;34.30;51.40
55135;DHT22;41031;44.750;11.308;2023-07-29T14:59:34;34.20;51.50
55135;DHT22;41031;44.750;11.308;2023-07-29T15:02:01;34.20;50.90
55135;DHT22;41031;44.750;11.308;2023-07-29T15:04:29;34.10;50.60
55135;DHT22;41031;44.750;11.308;2023-07-29T15:06:57;34.00;50.90
55135;DHT22;41031;44.750;11.308;2023-07-29T15:09:25;33.90;51.20
55135;DHT22;41031;44.750;11.308;2023-07-29T15:11:52;33.90;51.20
55135;DHT22;41031;44.750;11.308;2023-07-29T15:14:19;33.80;51.00
55135;DHT22;41031;44.750;11.308;2023-07-29T15:16:46;33.70;51.50
55135;DHT22;41031;44.750;11.308;2023-07-29T15:19:13;33.70;51.90
55135;DHT22;41031;44.750;11.308;2023-07-29T15:21:44;33.70;52.30
55135;DHT22;41031;44.750;11.308;2023-07-29T15:24:15;33.70;52.70
55135;DHT22;41031;44.750;11.308;2023-07-29T15:26:42;33.70;53.20
55135;DHT22;41031;44.750;11.308;2023-07-29T15:29:11;33.80;53.10
55135;DHT22;41031;44.750;11.308;2023-07-29T15:31:47;33.70;52.60
55135;DHT22;41031;44.750;11.308;2023-07-29T15:34:14;33.70;52.90
55135;DHT22;41031;44.750;11.308;2023-07-29T15:36:44;33.70;53.10
55135;DHT22;41031;44.750;11.308;2023-07-29T15:39:15;33.70;53.20
55135;DHT22;41031;44.750;11.308;2023-07-29T15:41:45;33.60;53.10
55135;DHT22;41031;44.750;11.308;2023-07-29T15:44:13;33.60;53.20
55135;DHT22;41031;44.750;11.308;2023-07-29T15:46:43;33.60;53.10
55135;DHT22;41031;44.750;11.308;2023-07-29T15:49:10;33.50;53.10
55135;DHT22;41031;44.750;11.308;2023-07-29T15:51:38;33.50;53.20
55135;DHT22;41031;44.750;11.308;2023-07-29T15:54:05;33.40;53.10
55135;DHT22;41031;44.750;11.308;2023-07-29T15:56:32;33.30;53.20
55135;DHT22;41031;44.750;11.308;2023-07-29T15:59:03;33.30;53.10
55135;DHT22;41031;44.750;11.308;2023-07-29T16:01:30;33.20;52.30
55135;DHT22;41031;44.750;11.308;2023-07-29T16:03:58;33.20;52.70
55135;DHT22;41031;44.750;11.308;2023-07-29T16:06:26;33.00;52.80
55135;DHT22;41031;44.750;11.308;2023-07-29T16:09:00;33.00;52.80
55135;DHT22;41031;44.750;11.308;2023-07-29T16:11:33;32.90;53.50
55135;DHT22;41031;44.750;11.308;2023-07-29T16:14:00;32.90;53.30
55135;DHT22;41031;44.750;11.308;2023-07-29T16:16:29;32.90;53.70
55135;DHT22;41031;44.750;11.308;2023-07-29T16:18:56;32.80;53.90
55135;DHT22;41031;44.750;11.308;2023-07-29T16:21:24;32.90;54.00
55135;DHT22;41031;44.750;11.308;2023-07-29T16:23:51;32.80;53.80
55135;DHT22;41031;44.750;11.308;2023-07-29T16:26:20;32.80;53.80
55135;DHT22;41031;44.750;11.308;2023-07-29T16:28:47;32.80;54.40
55135;DHT22;41031;44.750;11.308;2023-07-29T16:31:15;32.80;54.90
55135;DHT22;41031;44.750;11.308;2023-07-29T16:33:42;32.80;55.10
55135;DHT22;41031;44.750;11.308;2023-07-29T16:36:09;32.80;54.90
55135;DHT22;41031;44.750;11.308;2023-07-29T16:38:36;32.80;55.40
55135;DHT22;41031;44.750;11.308;2023-07-29T16:41:06;32.70;55.00
55135;DHT22;41031;44.750;11.308;2023-07-29T16:43:54;32.70;54.70
55135;DHT22;41031;44.750;11.308;2023-07-29T16:46:27;32.60;55.10
55135;DHT22;41031;44.750;11.308;2023-07-29T16:48:54;32.60;55.50
55135;DHT22;41031;44.750;11.308;2023-07-29T16:51:23;32.50;55.60
55135;DHT22;41031;44.750;11.308;2023-07-29T16:53:50;32.50;55.30
55135;DHT22;41031;44.750;11.308;2023-07-29T16:56:23;32.50;55.60
55135;DHT22;41031;44.750;11.308;2023-07-29T16:58:50;32.50;55.80
55135;DHT22;41031;44.750;11.308;2023-07-29T17:01:18;32.40;55.30
55135;DHT22;41031;44.750;11.308;2023-07-29T17:03:46;32.40;56.10
55135;DHT22;41031;44.750;11.308;2023-07-29T17:06:16;32.30;56.10
55135;DHT22;41031;44.750;11.308;2023-07-29T17:08:44;32.30;56.20
55135;DHT22;41031;44.750;11.308;2023-07-29T17:11:12;32.20;56.00
55135;DHT22;41031;44.750;11.308;2023-07-29T17:13:43;32.20;56.20
55135;DHT22;41031;44.750;11.308;2023-07-29T17:16:10;32.20;56.30
55135;DHT22;41031;44.750;11.308;2023-07-29T17:18:38;32.20;56.50
55135;DHT22;41031;44.750;11.308;2023-07-29T17:21:09;32.10;56.50
55135;DHT22;41031;44.750;11.308;2023-07-29T17:23:42;32.10;56.70
55135;DHT22;41031;44.750;11.308;2023-07-29T17:26:10;32.10;56.80
55135;DHT22;41031;44.750;11.308;2023-07-29T17:28:37;32.10;57.00
55135;DHT22;41031;44.750;11.308;2023-07-29T17:31:05;32.00;57.20
55135;DHT22;41031;44.750;11.308;2023-07-29T17:33:32;32.00;57.40
55135;DHT22;41031;44.750;11.308;2023-07-29T17:36:04;32.00;56.90
55135;DHT22;41031;44.750;11.308;2023-07-29T17:38:31;32.00;57.30
55135;DHT22;41031;44.750;11.308;2023-07-29T17:41:07;31.90;57.40
55135;DHT22;41031;44.750;11.308;2023-07-29T17:43:38;31.90;57.50
55135;DHT22;41031;44.750;11.308;2023-07-29T17:46:11;31.80;57.80
55135;DHT22;41031;44.750;11.308;2023-07-29T17:48:45;31.80;57.50
55135;DHT22;41031;44.750;11.308;2023-07-29T17:51:15;31.80;57.70
55135;DHT22;41031;44.750;11.308;2023-07-29T17:53:43;31.80;58.10
55135;DHT22;41031;44.750;11.308;2023-07-29T17:56:10;31.70;58.10
55135;DHT22;41031;44.750;11.308;2023-07-29T17:58:40;31.60;58.50
55135;DHT22;41031;44.750;11.308;2023-07-29T18:01:07;31.60;59.30
55135;DHT22;41031;44.750;11.308;2023-07-29T18:03:35;31.60;60.60
55135;DHT22;41031;44.750;11.308;2023-07-29T18:06:18;31.50;61.40
55135;DHT22;41031;44.750;11.308;2023-07-29T18:08:45;31.30;62.20
55135;DHT22;41031;44.750;11.308;2023-07-29T18:11:12;31.30;62.60
55135;DHT22;41031;44.750;11.308;2023-07-29T18:13:42;31.10;63.00
55135;DHT22;41031;44.750;11.308;2023-07-29T18:16:11;31.00;63.40
55135;DHT22;41031;44.750;11.308;2023-07-29T18:18:46;30.90;63.70
55135;DHT22;41031;44.750;11.308;2023-07-29T18:21:17;30.80;64.20
55135;DHT22;41031;44.750;11.308;2023-07-29T18:23:44;30.70;64.50
55135;DHT22;41031;44.750;11.308;2023-07-29T18:26:20;30.60;64.70
55135;DHT22;41031;44.750;11.308;2023-07-29T18:28:48;30.50;65.20
55135;DHT22;41031;44.750;11.308;2023-07-29T18:31:15;30.40;65.70
55135;DHT22;41031;44.750;11.308;2023-07-29T18:33:42;30.30;65.90
55135;DHT22;41031;44.750;11.308;2023-07-29T18:36:09;30.20;66.20
55135;DHT22;41031;44.750;11.308;2023-07-29T18:38:37;30.10;66.50
55135;DHT22;41031;44.750;11.308;2023-07-29T18:41:04;30.00;66.60